Chester, UT

11:58 AM MDT on July 26, 2014 (GMT -0600)
Heber (K36U) Elev 5636 ft | 40.48 °N, 111.43 °W | Change Station
Active Advisory: Fire Weather Warning

Current weather conditions updated 1 hour ago

Clear
Clear
77 °F
Feels Like 77 °F
N
0
Wind Variable Wind from North

Today is forecast to be nearly the same temperature as yesterday.

Today
High -- | Low -- °F
--% Chance of Precip.
Yesterday
High -- | Low -- °F
Precip. -- in
6:20 AM 8:44 PM
Waning Crescent, 0% visible
Pressure 30.24 in
Visibility 10.0 miles
Clouds Clear
Dew Point 45 °F
Humidity 32%
Rainfall 0.00 in
Snow Depth Not available.
UV 7 out of 12
Pollen 6.10 out of 12
Air Quality Not available.
Flu Activity Not available.
METAR K36U 261635Z AUTO 00000KT 10SM CLR 25/07 A3024 RMK AO2

More Conditions Fewer Conditions

Pressure 30.24 in
Visibility 10.0 miles
Clouds Clear
Dew Point 45 °F
Humidity 32%
Rainfall 0.00 in
Snow Depth Not available.
UV 7 out of 12
Pollen 6.10 out of 12
Air Quality Not available.
Flu Activity Not available.
METAR K36U 261635Z AUTO 00000KT 10SM CLR 25/07 A3024 RMK AO2

More Conditions Fewer Conditions

10-Day Weather Forecast

Almanac

Astronomy

Jul. 26, 2014 Rise Set
Actual Time 6:20 AM MDT 8:44 PM MDT
Civil Twilight 5:50 AM MDT 9:14 PM MDT
Nautical Twilight 5:12 AM MDT 9:52 PM MDT
Astronomical Twilight 4:30 AM MDT 10:34 PM MDT
Moon 6:16 AM MDT 8:21 PM MDT
Length of Visible Light 15h 24m
Length of Day
14h 23m
Tomorrow will be 1m 46s shorter.
Waning Crescent, 0% of the Moon is Illuminated
Today
Waning Crescent
Jul 26
New
Aug 3
First Quarter
Aug 10
Full
Aug 17
Last Quarter

Today's Extremes

State Highs State Lows

Community

WunderPhotos

Upload Photos

1,737,643 photos uploaded!

Nearby

Snow Depth

Station Depth Elevation
Gooseberry R.S. 0 in 7920 ft
Thaynes Canyon 0 in 9200 ft
Trial Lake 1 in 9960 ft
Clayton Springs 0 in 10000 ft
Trout Creek 0 in 9400 ft

Earthquake Activity

City Distance Mag. Time & Date
No recent earthquake activity has been reported nearby.
Minimum magnitude displayed is 2.5.

Coastal Water Temperatures

Place Temperature
No Stations Reporting

Nearby Weather Stations

Station Location Temp. Heat Index Dew Point Humidity Wind Precip. Elev Updated Type
Spring City, UT 82.4 °F 81 °F 50 °F 33% SW  at  0.0 mph 0.00 in / hr 5843 ft 11:45 AM MDT Normal
MesoWest EPHRAIM , Chester, UT 80 °F 79 °F 49 °F 34% WSW  at  1 mph 0.00 in / hr 5503 ft 11:00 AM MDT MADIS
MesoWest NEPHI , Nephi, UT 83 °F 81 °F 47 °F 29% South  at  7 mph 0.00 in / hr 5254 ft 11:00 AM MDT MADIS

Show More Stations Show Fewer Stations